createdAt,value
2023-05-21T00:00:35.027Z,7.83
2023-05-21T00:03:02.694Z,7.03
2023-05-21T00:05:29.542Z,6.17
2023-05-21T00:07:56.665Z,7.60
2023-05-21T00:10:23.558Z,7.03
2023-05-21T00:12:50.415Z,7.13
2023-05-21T00:15:17.498Z,7.47
2023-05-21T00:17:46.208Z,8.23
2023-05-21T00:20:13.395Z,7.87
2023-05-21T00:22:42.154Z,7.53
2023-05-21T00:25:10.108Z,7.53
2023-05-21T00:27:37.240Z,7.33
2023-05-21T00:30:04.907Z,8.43
2023-05-21T00:32:31.897Z,8.17
2023-05-21T00:34:58.951Z,7.30
2023-05-21T00:37:25.795Z,6.67
2023-05-21T00:39:52.600Z,7.50
2023-05-21T00:42:21.182Z,9.20
2023-05-21T00:44:48.290Z,7.83
2023-05-21T00:47:18.359Z,6.83
2023-05-21T00:49:45.489Z,10.10
2023-05-21T00:52:12.850Z,8.73
2023-05-21T00:54:40.581Z,7.40
2023-05-21T00:57:07.978Z,9.97
2023-05-21T00:59:35.380Z,9.27
2023-05-21T01:02:05.436Z,7.40
2023-05-21T01:04:32.949Z,7.70
2023-05-21T01:06:59.855Z,7.80
2023-05-21T01:09:27.243Z,6.73
2023-05-21T01:11:55.881Z,8.03
2023-05-21T01:14:24.272Z,8.67
2023-05-21T01:16:52.883Z,7.53
2023-05-21T01:19:22.298Z,8.27
2023-05-21T01:21:56.467Z,7.23
2023-05-21T01:24:23.465Z,7.53
2023-05-21T01:26:50.457Z,7.03
2023-05-21T01:29:17.246Z,9.43
2023-05-21T01:31:53.588Z,10.83
2023-05-21T01:34:23.914Z,7.63
2023-05-21T01:37:01.257Z,7.80
2023-05-21T01:39:37.966Z,7.80
2023-05-21T01:42:09.176Z,7.43
2023-05-21T01:44:37.127Z,7.70
2023-05-21T01:47:04.990Z,8.93
2023-05-21T01:49:32.292Z,8.40
2023-05-21T01:51:59.197Z,7.40
2023-05-21T01:54:26.040Z,7.37
2023-05-21T01:56:53.013Z,7.97
2023-05-21T01:59:20.301Z,8.00
2023-05-21T02:01:47.501Z,9.37
2023-05-21T02:04:14.380Z,8.17
2023-05-21T02:06:41.845Z,8.20
2023-05-21T02:09:09.378Z,8.33
2023-05-21T02:11:36.280Z,8.40
2023-05-21T02:14:03.945Z,9.07
2023-05-21T02:16:30.822Z,7.63
2023-05-21T02:18:57.986Z,8.93
2023-05-21T02:21:24.830Z,9.03
2023-05-21T02:23:51.870Z,7.23
2023-05-21T02:26:18.890Z,9.83
2023-05-21T02:28:45.718Z,9.20
2023-05-21T02:31:15.615Z,9.07
2023-05-21T02:33:42.556Z,7.90
2023-05-21T02:36:13.130Z,9.87
2023-05-21T02:38:43.924Z,8.20
2023-05-21T02:41:11.888Z,10.13
2023-05-21T02:43:38.963Z,9.00
2023-05-21T02:46:07.492Z,8.00
2023-05-21T02:48:34.444Z,8.13
2023-05-21T02:51:01.369Z,8.83
2023-05-21T02:53:28.407Z,9.03
2023-05-21T02:55:55.189Z,8.07
2023-05-21T02:58:23.456Z,10.47
2023-05-21T03:00:50.493Z,7.50
2023-05-21T03:03:17.331Z,10.37
2023-05-21T03:05:45.866Z,8.63
2023-05-21T03:08:12.799Z,9.93
2023-05-21T03:10:39.593Z,10.53
2023-05-21T03:13:09.529Z,9.93
2023-05-21T03:15:39.073Z,9.43
2023-05-21T03:18:06.471Z,9.43
2023-05-21T03:20:33.578Z,10.30
2023-05-21T03:23:04.341Z,10.67
2023-05-21T03:25:31.240Z,9.03
2023-05-21T03:27:58.035Z,10.93
2023-05-21T03:30:25.205Z,9.23
2023-05-21T03:32:52.139Z,10.17
2023-05-21T03:35:18.966Z,10.07
2023-05-21T03:37:46.590Z,9.03
2023-05-21T03:40:13.788Z,8.70
2023-05-21T03:42:40.955Z,9.73
2023-05-21T03:45:08.288Z,8.10
2023-05-21T03:47:36.206Z,9.03
2023-05-21T03:50:03.803Z,12.13
2023-05-21T03:52:30.970Z,9.77
2023-05-21T03:54:57.764Z,7.97
2023-05-21T03:57:24.738Z,8.63
2023-05-21T03:59:51.570Z,7.90
2023-05-21T04:02:18.464Z,9.27
2023-05-21T04:04:45.817Z,9.83
2023-05-21T04:07:15.403Z,10.77
2023-05-21T04:09:42.477Z,7.77
2023-05-21T04:12:09.538Z,7.70
2023-05-21T04:14:37.622Z,8.13
2023-05-21T04:17:05.395Z,7.67
2023-05-21T04:19:32.868Z,10.10
2023-05-21T04:22:00.015Z,8.70
2023-05-21T04:24:26.923Z,9.00
2023-05-21T04:26:53.901Z,7.97
2023-05-21T04:29:21.198Z,9.27
2023-05-21T04:31:49.663Z,8.47
2023-05-21T04:34:18.021Z,8.60
2023-05-21T04:36:48.304Z,10.27
2023-05-21T04:39:15.933Z,8.73
2023-05-21T04:41:42.848Z,7.90
2023-05-21T04:44:10.269Z,8.37
2023-05-21T04:46:39.645Z,10.27
2023-05-21T04:49:10.244Z,8.77
2023-05-21T04:51:40.304Z,8.47
2023-05-21T04:54:07.508Z,8.83
2023-05-21T04:56:34.641Z,7.77
2023-05-21T04:59:03.915Z,9.47
2023-05-21T05:01:33.052Z,10.47
2023-05-21T05:03:59.865Z,10.30
2023-05-21T05:06:26.958Z,8.93
2023-05-21T05:08:53.786Z,8.43
2023-05-21T05:11:21.249Z,8.30
2023-05-21T05:13:48.300Z,9.17
2023-05-21T05:16:17.987Z,8.40
2023-05-21T05:18:44.863Z,9.03
2023-05-21T05:21:11.851Z,8.53
2023-05-21T05:23:38.836Z,9.20
2023-05-21T05:26:05.654Z,8.20
2023-05-21T05:28:32.668Z,9.27
2023-05-21T05:30:59.618Z,10.40
2023-05-21T05:33:26.621Z,8.53
2023-05-21T05:35:53.647Z,9.37
2023-05-21T05:38:20.438Z,8.97
2023-05-21T05:40:47.267Z,9.27
2023-05-21T05:43:14.400Z,10.67
2023-05-21T05:45:41.194Z,8.67
2023-05-21T05:48:08.082Z,8.93
2023-05-21T05:50:35.123Z,9.57
2023-05-21T05:53:02.010Z,8.77
2023-05-21T05:55:28.818Z,9.40
2023-05-21T05:57:56.359Z,10.27
2023-05-21T06:00:23.176Z,12.40
2023-05-21T06:02:50.087Z,10.93
2023-05-21T06:05:17.333Z,8.20
2023-05-21T06:07:44.205Z,8.23
2023-05-21T06:10:11.303Z,8.23
2023-05-21T06:12:38.202Z,8.63
2023-05-21T06:15:06.172Z,9.93
2023-05-21T06:17:33.474Z,7.97
2023-05-21T06:20:00.513Z,8.97
2023-05-21T06:22:27.643Z,11.47
2023-05-21T06:24:54.648Z,9.57
2023-05-21T06:27:21.428Z,8.03
2023-05-21T06:29:48.606Z,7.63
2023-05-21T06:32:15.608Z,9.00
2023-05-21T06:34:42.589Z,7.70
2023-05-21T06:37:09.395Z,9.47
2023-05-21T06:39:36.408Z,8.33
2023-05-21T06:42:03.323Z,9.27
2023-05-21T06:44:31.129Z,9.07
2023-05-21T06:46:58.109Z,9.70
2023-05-21T06:49:25.012Z,10.87
2023-05-21T06:51:51.833Z,9.93
2023-05-21T06:54:18.961Z,9.37
2023-05-21T06:56:46.013Z,10.43
2023-05-21T06:59:12.850Z,8.70
2023-05-21T07:01:42.777Z,9.23
2023-05-21T07:04:10.450Z,10.20
2023-05-21T07:06:40.916Z,10.03
2023-05-21T07:09:07.968Z,11.13
2023-05-21T07:11:34.926Z,9.40
2023-05-21T07:14:02.203Z,10.37
2023-05-21T07:16:29.310Z,8.80
2023-05-21T07:18:56.215Z,8.43
2023-05-21T07:21:23.044Z,8.17
2023-05-21T07:23:50.420Z,8.47
2023-05-21T07:26:17.709Z,13.93
2023-05-21T07:28:45.367Z,9.57
2023-05-21T07:31:12.495Z,11.10
2023-05-21T07:33:39.473Z,10.10
2023-05-21T07:36:06.998Z,8.83
2023-05-21T07:38:34.622Z,11.00
2023-05-21T07:41:01.415Z,9.13
2023-05-21T07:43:28.440Z,10.83
2023-05-21T07:45:55.659Z,10.93
2023-05-21T07:48:22.635Z,10.47
2023-05-21T07:50:50.256Z,8.60
2023-05-21T07:53:17.122Z,9.83
2023-05-21T07:55:47.781Z,10.77
2023-05-21T07:58:16.634Z,9.70
2023-05-21T08:00:47.693Z,10.07
2023-05-21T08:03:17.514Z,9.37
2023-05-21T08:05:48.635Z,9.80
2023-05-21T08:08:16.755Z,10.80
2023-05-21T08:10:43.926Z,9.77
2023-05-21T08:13:12.430Z,11.33
2023-05-21T08:15:39.854Z,9.53
2023-05-21T08:18:07.035Z,10.93
2023-05-21T08:20:35.048Z,10.33
2023-05-21T08:23:02.303Z,9.87
2023-05-21T08:25:29.434Z,11.63
2023-05-21T08:27:56.554Z,9.03
2023-05-21T08:30:23.409Z,11.27
2023-05-21T08:32:50.551Z,9.70
2023-05-21T08:35:17.398Z,9.80
2023-05-21T08:37:44.485Z,9.57
2023-05-21T08:40:12.502Z,12.50
2023-05-21T08:42:42.268Z,12.57
2023-05-21T08:45:13.055Z,8.73
2023-05-21T08:47:45.293Z,12.23
2023-05-21T08:50:19.738Z,8.85
2023-05-21T08:52:46.904Z,10.48
2023-05-21T08:55:14.182Z,9.02
2023-05-21T08:57:45.423Z,9.68
2023-05-21T09:00:12.829Z,12.43
2023-05-21T09:02:44.004Z,13.20
2023-05-21T09:05:12.450Z,9.60
2023-05-21T09:08:03.547Z,10.45
2023-05-21T09:10:37.173Z,9.70
2023-05-21T09:13:04.914Z,9.15
2023-05-21T09:15:32.966Z,10.15
2023-05-21T09:18:00.450Z,13.68
2023-05-21T09:20:28.368Z,9.90
2023-05-21T09:22:55.750Z,9.57
2023-05-21T09:25:30.095Z,10.13
2023-05-21T09:27:57.510Z,10.20
2023-05-21T09:30:34.093Z,10.05
2023-05-21T09:33:03.689Z,12.27
2023-05-21T09:35:30.721Z,13.52
2023-05-21T09:37:57.757Z,11.35
2023-05-21T09:40:25.028Z,10.70
2023-05-21T09:42:55.919Z,10.68
2023-05-21T09:45:27.146Z,12.40
2023-05-21T09:47:56.613Z,11.70
2023-05-21T09:50:27.945Z,10.45
2023-05-21T09:52:56.112Z,12.23
2023-05-21T09:55:24.101Z,11.43
2023-05-21T09:57:51.646Z,11.18
2023-05-21T10:00:23.301Z,10.98
2023-05-21T10:02:58.159Z,10.73
2023-05-21T10:05:29.558Z,11.40
2023-05-21T10:08:02.391Z,11.38
2023-05-21T10:10:31.203Z,10.65
2023-05-21T10:13:04.792Z,10.85
2023-05-21T10:15:42.437Z,12.57
2023-05-21T10:18:11.211Z,10.65
2023-05-21T10:20:38.966Z,10.90
2023-05-21T10:23:06.566Z,10.48
2023-05-21T10:25:34.094Z,11.65
2023-05-21T10:28:01.325Z,12.05
2023-05-21T10:30:29.010Z,11.35
2023-05-21T10:32:57.024Z,11.70
2023-05-21T10:35:24.826Z,11.40
2023-05-21T10:37:53.272Z,12.75
2023-05-21T10:40:20.492Z,11.25
2023-05-21T10:43:12.067Z,11.65
2023-05-21T10:45:39.081Z,10.65
2023-05-21T10:48:30.778Z,11.43
2023-05-21T10:51:06.574Z,12.07
2023-05-21T10:54:01.738Z,11.52
2023-05-21T10:56:43.400Z,13.07
2023-05-21T10:59:41.268Z,11.43
2023-05-21T11:02:09.723Z,12.45
2023-05-21T11:04:40.319Z,12.93
2023-05-21T11:07:07.418Z,13.68
2023-05-21T11:09:34.626Z,11.38
2023-05-21T11:12:03.324Z,11.77
2023-05-21T11:14:35.900Z,13.07
2023-05-21T11:17:05.000Z,13.70
2023-05-21T11:19:42.042Z,13.07
2023-05-21T11:22:24.065Z,13.80
2023-05-21T11:24:52.283Z,12.80
2023-05-21T11:27:38.114Z,12.20
2023-05-21T11:30:25.781Z,13.10
2023-05-21T11:33:07.794Z,13.30
2023-05-21T11:35:50.568Z,14.88
2023-05-21T11:38:18.577Z,13.50
2023-05-21T11:40:55.377Z,16.17
2023-05-21T11:43:22.536Z,13.50
2023-05-21T11:45:52.674Z,14.98
2023-05-21T11:48:27.233Z,14.77
2023-05-21T11:50:55.125Z,14.55
2023-05-21T11:53:22.381Z,13.77
2023-05-21T11:55:50.881Z,14.77
2023-05-21T11:58:19.663Z,13.00
2023-05-21T12:00:50.836Z,14.80
2023-05-21T12:03:21.075Z,13.27
2023-05-21T12:05:49.749Z,14.77
2023-05-21T12:08:25.878Z,14.65
2023-05-21T12:11:00.295Z,15.20
2023-05-21T12:13:28.590Z,14.35
2023-05-21T12:15:55.591Z,14.57
2023-05-21T12:18:22.850Z,16.92
2023-05-21T12:20:52.260Z,14.70
2023-05-21T12:23:21.115Z,14.13
2023-05-21T12:25:48.289Z,17.13
2023-05-21T12:28:15.967Z,14.80
2023-05-21T12:30:42.790Z,14.45
2023-05-21T12:33:12.317Z,15.82
2023-05-21T12:35:39.688Z,14.15
2023-05-21T12:38:10.005Z,14.25
2023-05-21T12:40:41.118Z,15.63
2023-05-21T12:43:08.828Z,13.82
2023-05-21T12:45:37.209Z,14.85
2023-05-21T12:48:04.424Z,15.98
2023-05-21T12:50:33.988Z,15.75
2023-05-21T12:53:00.988Z,14.45
2023-05-21T12:55:28.196Z,13.75
2023-05-21T12:58:08.792Z,13.60
2023-05-21T13:00:36.743Z,15.43
2023-05-21T13:03:06.272Z,14.77
2023-05-21T13:05:34.151Z,13.95
2023-05-21T13:08:01.317Z,13.95
2023-05-21T13:10:29.220Z,14.90
2023-05-21T13:12:56.578Z,15.00
2023-05-21T13:15:23.624Z,14.88
2023-05-21T13:17:51.160Z,12.75
2023-05-21T13:20:22.059Z,14.68
2023-05-21T13:22:51.113Z,14.70
2023-05-21T13:25:25.043Z,13.50
2023-05-21T13:27:53.361Z,13.57
2023-05-21T13:30:22.256Z,12.50
2023-05-21T13:32:49.449Z,13.90
2023-05-21T13:35:17.520Z,13.48
2023-05-21T13:37:45.341Z,14.50
2023-05-21T13:40:17.940Z,14.70
2023-05-21T13:42:46.901Z,14.15
2023-05-21T13:45:16.882Z,13.32
2023-05-21T13:47:44.828Z,14.77
2023-05-21T13:50:12.986Z,20.20
2023-05-21T13:52:40.691Z,14.75
2023-05-21T13:55:07.970Z,14.52
2023-05-21T13:57:34.805Z,13.40
2023-05-21T14:00:01.962Z,14.23
2023-05-21T14:02:29.118Z,13.93
2023-05-21T14:04:56.018Z,15.88
2023-05-21T14:07:23.276Z,14.77
2023-05-21T14:09:50.122Z,14.60
2023-05-21T14:12:17.249Z,14.98
2023-05-21T14:14:44.414Z,15.73
2023-05-21T14:17:11.391Z,15.52
2023-05-21T14:19:38.180Z,14.90
2023-05-21T14:22:05.453Z,16.83
2023-05-21T14:24:32.732Z,16.27
2023-05-21T14:26:59.531Z,16.30
2023-05-21T14:29:26.867Z,16.40
2023-05-21T14:31:54.055Z,16.00
2023-05-21T14:34:21.260Z,17.33
2023-05-21T14:36:48.374Z,15.38
2023-05-21T14:39:15.569Z,18.23
2023-05-21T14:41:42.711Z,15.32
2023-05-21T14:44:09.723Z,18.52
2023-05-21T14:46:36.906Z,16.08
2023-05-21T14:49:04.075Z,15.90
2023-05-21T14:51:31.846Z,15.73
2023-05-21T14:53:59.279Z,17.63
2023-05-21T14:56:27.971Z,17.40
2023-05-21T14:58:55.737Z,15.75
2023-05-21T15:01:22.717Z,17.83
2023-05-21T15:03:49.747Z,18.77
2023-05-21T15:06:17.130Z,17.30
2023-05-21T15:08:44.018Z,15.35
2023-05-21T15:11:11.496Z,16.30
2023-05-21T15:13:39.612Z,16.48
2023-05-21T15:16:07.178Z,16.02
2023-05-21T15:18:34.214Z,15.63
2023-05-21T15:21:01.469Z,15.77
2023-05-21T15:23:28.409Z,16.20
2023-05-21T15:25:55.802Z,15.10
2023-05-21T15:28:23.328Z,15.75
2023-05-21T15:30:50.360Z,15.18
2023-05-21T15:33:17.680Z,15.25
2023-05-21T15:35:44.947Z,15.88
2023-05-21T15:38:12.188Z,16.10
2023-05-21T15:40:42.942Z,14.95
2023-05-21T15:43:09.761Z,15.27
2023-05-21T15:45:36.994Z,14.35
2023-05-21T15:48:04.755Z,15.25
2023-05-21T15:50:31.593Z,15.90
2023-05-21T15:52:58.787Z,15.77
2023-05-21T15:55:25.924Z,15.13
2023-05-21T15:57:52.795Z,14.25
2023-05-21T16:00:20.107Z,14.15
2023-05-21T16:02:47.333Z,14.40
2023-05-21T16:05:14.204Z,14.45
2023-05-21T16:07:41.084Z,14.85
2023-05-21T16:10:10.385Z,14.93
2023-05-21T16:12:37.376Z,14.82
2023-05-21T16:15:05.119Z,14.82
2023-05-21T16:17:32.171Z,14.30
2023-05-21T16:19:59.104Z,13.50
2023-05-21T16:22:26.142Z,14.05
2023-05-21T16:24:54.650Z,14.00
2023-05-21T16:27:21.882Z,13.55
2023-05-21T16:29:48.745Z,14.60
2023-05-21T16:32:16.342Z,14.35
2023-05-21T16:34:43.258Z,14.48
2023-05-21T16:37:10.225Z,15.02
2023-05-21T16:39:37.977Z,15.05
2023-05-21T16:42:05.060Z,13.60
2023-05-21T16:44:32.349Z,14.63
2023-05-21T16:46:59.978Z,16.40
2023-05-21T16:49:28.299Z,13.32
2023-05-21T16:51:55.135Z,13.45
2023-05-21T16:54:22.610Z,14.07
2023-05-21T16:56:49.569Z,13.13
2023-05-21T16:59:16.479Z,13.60
2023-05-21T17:01:45.428Z,13.70
2023-05-21T17:04:12.415Z,13.75
2023-05-21T17:06:39.263Z,13.30
2023-05-21T17:09:06.991Z,14.02
2023-05-21T17:11:35.062Z,14.63
2023-05-21T17:14:01.988Z,15.10
2023-05-21T17:16:29.511Z,13.63
2023-05-21T17:18:56.516Z,13.55
2023-05-21T17:21:23.751Z,12.85
2023-05-21T17:23:50.794Z,14.20
2023-05-21T17:26:18.135Z,12.88
2023-05-21T17:28:45.291Z,12.77
2023-05-21T17:31:12.661Z,12.75
2023-05-21T17:33:39.782Z,15.75
2023-05-21T17:36:06.952Z,13.63
2023-05-21T17:38:34.139Z,13.70
2023-05-21T17:41:01.044Z,14.55
2023-05-21T17:43:27.959Z,14.02
2023-05-21T17:45:55.099Z,13.70
2023-05-21T17:48:22.076Z,13.60
2023-05-21T17:50:49.747Z,13.48
2023-05-21T17:53:16.731Z,13.20
2023-05-21T17:55:43.710Z,13.15
2023-05-21T17:58:10.860Z,12.48
2023-05-21T18:00:37.745Z,15.57
2023-05-21T18:03:04.793Z,12.25
2023-05-21T18:05:31.873Z,13.38
2023-05-21T18:08:01.142Z,12.40
2023-05-21T18:10:28.436Z,11.90
2023-05-21T18:12:55.597Z,11.70
2023-05-21T18:15:25.856Z,14.38
2023-05-21T18:17:53.058Z,12.50
2023-05-21T18:20:20.350Z,11.55
2023-05-21T18:22:47.475Z,11.77
2023-05-21T18:25:14.472Z,12.15
2023-05-21T18:27:41.321Z,12.48
2023-05-21T18:30:08.800Z,12.30
2023-05-21T18:32:39.080Z,13.15
2023-05-21T18:35:13.775Z,11.63
2023-05-21T18:37:44.753Z,13.00
2023-05-21T18:40:12.828Z,11.68
2023-05-21T18:42:39.728Z,12.02
2023-05-21T18:45:08.712Z,12.35
2023-05-21T18:47:35.941Z,12.57
2023-05-21T18:50:02.783Z,12.73
2023-05-21T18:52:29.826Z,13.57
2023-05-21T18:54:56.784Z,12.90
2023-05-21T18:57:23.957Z,13.20
2023-05-21T18:59:51.063Z,13.52
2023-05-21T19:02:17.993Z,12.80
2023-05-21T19:04:45.596Z,13.45
2023-05-21T19:07:12.703Z,14.25
2023-05-21T19:09:39.533Z,12.85
2023-05-21T19:12:07.182Z,12.65
2023-05-21T19:14:34.461Z,14.00
2023-05-21T19:17:01.393Z,15.85
2023-05-21T19:19:28.393Z,15.68
2023-05-21T19:21:55.909Z,13.50
2023-05-21T19:24:22.928Z,12.85
2023-05-21T19:26:49.802Z,13.50
2023-05-21T19:29:17.151Z,14.55
2023-05-21T19:31:44.779Z,13.30
2023-05-21T19:34:11.726Z,14.07
2023-05-21T19:36:52.302Z,13.82
2023-05-21T19:39:20.363Z,13.00
2023-05-21T19:41:47.593Z,14.82
2023-05-21T19:44:14.972Z,14.02
2023-05-21T19:46:41.984Z,13.40
2023-05-21T19:49:11.218Z,14.48
2023-05-21T19:51:38.098Z,15.00
2023-05-21T19:54:05.419Z,14.45
2023-05-21T19:56:32.661Z,13.30
2023-05-21T19:58:59.521Z,13.40
2023-05-21T20:01:28.789Z,15.57
2023-05-21T20:03:56.484Z,17.75
2023-05-21T20:06:23.579Z,13.50
2023-05-21T20:08:51.836Z,15.75
2023-05-21T20:11:21.175Z,16.05
2023-05-21T20:13:50.293Z,14.95
2023-05-21T20:16:20.697Z,15.43
2023-05-21T20:18:48.424Z,15.80
2023-05-21T20:21:21.212Z,15.68
2023-05-21T20:23:50.542Z,14.38
2023-05-21T20:26:19.269Z,15.52
2023-05-21T20:28:46.478Z,15.10
2023-05-21T20:31:14.040Z,17.33
2023-05-21T20:33:42.747Z,15.27
2023-05-21T20:36:09.823Z,14.60
2023-05-21T20:38:38.871Z,15.93
2023-05-21T20:41:06.288Z,23.40
2023-05-21T20:43:37.618Z,16.42
2023-05-21T20:46:06.540Z,15.90
2023-05-21T20:48:34.113Z,16.23
2023-05-21T20:51:03.306Z,14.02
2023-05-21T20:53:30.256Z,13.35
2023-05-21T20:55:57.411Z,14.25
2023-05-21T20:58:25.529Z,13.35
2023-05-21T21:00:54.286Z,14.38
2023-05-21T21:03:22.108Z,14.05
2023-05-21T21:05:49.190Z,14.95
2023-05-21T21:08:16.201Z,13.95
2023-05-21T21:10:47.233Z,14.13
2023-05-21T21:13:14.847Z,13.85
2023-05-21T21:15:43.777Z,14.40
2023-05-21T21:18:12.673Z,16.05
2023-05-21T21:20:41.501Z,13.55
2023-05-21T21:23:09.165Z,13.57
2023-05-21T21:25:36.442Z,13.00
2023-05-21T21:28:03.372Z,12.25
2023-05-21T21:30:30.885Z,15.60
2023-05-21T21:32:58.024Z,15.32
2023-05-21T21:35:26.434Z,12.45
2023-05-21T21:37:53.555Z,13.57
2023-05-21T21:40:24.555Z,15.35
2023-05-21T21:42:51.772Z,13.50
2023-05-21T21:45:19.239Z,15.18
2023-05-21T21:47:46.832Z,13.15
2023-05-21T21:50:14.088Z,13.30
2023-05-21T21:52:42.186Z,13.10
2023-05-21T21:55:10.893Z,14.23
2023-05-21T21:57:39.602Z,15.25
2023-05-21T22:00:11.897Z,14.73
2023-05-21T22:02:40.297Z,15.00
2023-05-21T22:05:08.991Z,14.52
2023-05-21T22:07:38.883Z,14.15
2023-05-21T22:10:07.088Z,13.45
2023-05-21T22:12:34.394Z,14.57
2023-05-21T22:15:06.688Z,15.00
2023-05-21T22:17:34.211Z,15.48
2023-05-21T22:20:01.474Z,14.60
2023-05-21T22:22:28.534Z,15.43
2023-05-21T22:24:55.436Z,16.63
2023-05-21T22:27:22.560Z,15.40
2023-05-21T22:29:49.465Z,15.20
2023-05-21T22:32:16.461Z,14.82
2023-05-21T22:34:43.537Z,15.10
2023-05-21T22:37:11.058Z,17.13
2023-05-21T22:39:38.712Z,23.58
2023-05-21T22:42:05.921Z,16.65
2023-05-21T22:44:33.645Z,15.02
2023-05-21T22:47:01.135Z,14.50
2023-05-21T22:49:28.169Z,15.18
2023-05-21T22:51:56.811Z,14.38
2023-05-21T22:54:23.908Z,12.88
2023-05-21T22:56:50.949Z,14.07
2023-05-21T22:59:18.129Z,14.50
2023-05-21T23:01:45.219Z,15.75
2023-05-21T23:04:12.204Z,14.77
2023-05-21T23:06:39.049Z,14.23
2023-05-21T23:09:06.483Z,14.25
2023-05-21T23:11:33.381Z,15.37
2023-05-21T23:14:00.574Z,15.25
2023-05-21T23:16:27.631Z,20.33
2023-05-21T23:18:54.523Z,16.65
2023-05-21T23:21:22.054Z,12.90
2023-05-21T23:23:49.057Z,13.95
2023-05-21T23:26:16.243Z,13.80
2023-05-21T23:28:43.368Z,15.75
2023-05-21T23:31:10.629Z,14.32
2023-05-21T23:33:37.484Z,15.55
2023-05-21T23:36:04.572Z,14.80
2023-05-21T23:38:31.575Z,14.45
2023-05-21T23:40:58.372Z,13.52
2023-05-21T23:43:25.354Z,13.65
2023-05-21T23:45:52.183Z,14.65
2023-05-21T23:48:19.412Z,15.10
2023-05-21T23:50:46.620Z,15.32
2023-05-21T23:53:13.469Z,15.70
2023-05-21T23:55:40.908Z,15.63
2023-05-21T23:58:07.973Z,16.90
